Airfield :
LOGIN :

Register | Disclaimer

   EN    FR    IT 

 










Legend :    VFR   Marginal VFR   IFR   Intensive IFR   Very Intensive IFR
Visi :
Ceiling :
>= 8 km
>= 3000ft
5 to 8 km
1000 to 3000 ft
1500m to 5 km
500 to 1000 ft
800 to 1500m
200 to 500 ft
< 800m
< 200 ft
Symbols :   Thunderstorms  Fog  Heavy snow  Heavy precipitations  Wind > 20 kt
SIGMETs :     Misc.  Thunderstorms  Icing  Turbulence  Mountain Waves  Volcanic Ashes






- Airport Elevation : 856 ft
- IATA code : VGO


LEVX - Vigo Peinador

CURRENT METAR :
  • 011230Z 22004KT 190V260 CAVOK 11/07 Q1016 NOSIG

EXPIRED METARs :
  • 011200Z 22005KT 190V260 CAVOK 10/07 Q1016 NOSIG
  • 011130Z 23006KT 210V280 CAVOK 09/07 Q1016 NOSIG
  • 011100Z VRB03KT 9999 BCFG FEW003 08/07 Q1017 NOSIG
  • 011030Z 22010KT 9999 BCFG SCT002 07/05 Q1017 NOSIG
  • 011000Z 20009KT 160V230 9000 BCFG SCT002 07/06 Q1017 TEMPO 0350 FG VV001

TAF TAF LEVX
Valid from the 01 at 12:00 until the 02 at 12:00 UTC


011100Z 0112/0212 19007KT CAVOK TX15/0115Z TN03/0208Z



MET'MAP, your aeronautical weather chart ! - Copyright ORBIFLY December 2007 - Disclaimer

ORBIFLY MET'MAP TEAM :

Programming & Development : Alexandra Zaïnal
Original concept : Baudouin d'Aumeries
Technical & hardware support : Manuel Goepfert
Assistance : Marc-Olivier Méhu




SOURCES & CREDITS :

   NOAA